KFQD

Rutherford Co - Marchman Field Airport

Rutherfordton, North Carolina, USA
METAR KFQD 210645Z AUTO 17003KT 5SM BR SCT001 18/18 A3015 RMK AO2 T01810181
Observed Flight Rules
May-21 @ 06:45 UTC (31 minutes ago) Marginal Visual Flight Rules
Wind Visibility Clouds Conditions
170° at 3 knots 5 miles
  • Scattered at 100' AGL
  • Mist
Temperatures Readings
Current 18°C / 64°F
Dewpoint 18°C / 64°F
Humidity 100%
Altimeter 30.15" Hg
Pressure 1021 hPa
Elevation 329
METAR KFQD 210645Z AUTO 17003KT 5SM BR SCT001 18/18 A3015 RMK AO2 T01810181
Observed Flight Rules
May-21 @ 06:45 UTC
(31 minutes ago)
MVFR
Wind Visibility
170° at 3 knots 5 miles
Clouds
  • Scattered at 100' AGL
Conditions
  • Mist
Temperature Dewpoint
18°C / 64°F 18°C / 64°F
Humidity Altimeter Pressure
100% 30.15" Hg 1021 hPa